Midland City, Alabama
Current Conditions -  °F | °C
As of 12:53 PM on Tuesday 21 Oct 2014 (Local Time) from KDHN Reporting Station
Clear Clear  
Wind Chill: 77°   Ceiling: Unl
Heat Index: 78°   Visibility: 10mi
Dew Point: 53°   Wind: 3mph
Humidity: 43%   Direction: 310°NW
Pressure: 30.04"   Gusts: NA
Location:  31.32°N, 85.49°W
Report Text: KDHN 211753Z 31003KT 10SM CLR 25/12 A3004 RMK AO2 SLP167 T02500117 10256 20106 58013
Loading
Personal Weather Stations






























Interactive Weather Map
Tropical Storm Tracking
New forecast layout! Learn more

10-Day Weather Forecast

Advertisements
Track Severe Weather on mobile